sensor_id;sensor_type;location;lat;lon;timestamp;temperature;humidity
5172;DHT22;2605;49.770;9.868;2022-08-25T00:02:16;19.90;99.90
5172;DHT22;2605;49.770;9.868;2022-08-25T00:04:42;19.80;99.90
5172;DHT22;2605;49.770;9.868;2022-08-25T00:07:07;19.80;99.90
5172;DHT22;2605;49.770;9.868;2022-08-25T00:09:34;19.80;99.90
5172;DHT22;2605;49.770;9.868;2022-08-25T00:12:00;19.70;99.90
5172;DHT22;2605;49.770;9.868;2022-08-25T00:14:28;19.70;99.90
5172;DHT22;2605;49.770;9.868;2022-08-25T00:16:54;19.70;99.90
5172;DHT22;2605;49.770;9.868;2022-08-25T00:19:24;19.70;99.90
5172;DHT22;2605;49.770;9.868;2022-08-25T00:21:50;19.60;99.90
5172;DHT22;2605;49.770;9.868;2022-08-25T00:24:17;19.60;99.90
5172;DHT22;2605;49.770;9.868;2022-08-25T00:26:45;19.60;99.90
5172;DHT22;2605;49.770;9.868;2022-08-25T00:29:11;19.50;99.90
5172;DHT22;2605;49.770;9.868;2022-08-25T00:31:40;19.50;99.90
5172;DHT22;2605;49.770;9.868;2022-08-25T00:34:24;19.50;99.90
5172;DHT22;2605;49.770;9.868;2022-08-25T00:36:50;19.40;99.90
5172;DHT22;2605;49.770;9.868;2022-08-25T00:39:20;19.40;99.90
5172;DHT22;2605;49.770;9.868;2022-08-25T00:41:47;19.40;99.90
5172;DHT22;2605;49.770;9.868;2022-08-25T00:44:14;19.30;99.90
5172;DHT22;2605;49.770;9.868;2022-08-25T00:46:49;19.30;99.90
5172;DHT22;2605;49.770;9.868;2022-08-25T00:49:19;19.30;99.90
5172;DHT22;2605;49.770;9.868;2022-08-25T00:51:47;19.20;99.90
5172;DHT22;2605;49.770;9.868;2022-08-25T00:54:18;19.20;99.90
5172;DHT22;2605;49.770;9.868;2022-08-25T00:56:45;19.20;99.90
5172;DHT22;2605;49.770;9.868;2022-08-25T00:59:12;19.10;99.90
5172;DHT22;2605;49.770;9.868;2022-08-25T01:01:38;19.10;99.90
5172;DHT22;2605;49.770;9.868;2022-08-25T01:04:03;19.10;99.90
5172;DHT22;2605;49.770;9.868;2022-08-25T01:06:30;19.00;99.90
5172;DHT22;2605;49.770;9.868;2022-08-25T01:08:58;19.00;99.90
5172;DHT22;2605;49.770;9.868;2022-08-25T01:11:23;19.00;99.90
5172;DHT22;2605;49.770;9.868;2022-08-25T01:13:52;19.00;99.90
5172;DHT22;2605;49.770;9.868;2022-08-25T01:16:18;19.00;99.90
5172;DHT22;2605;49.770;9.868;2022-08-25T01:18:48;18.90;99.90
5172;DHT22;2605;49.770;9.868;2022-08-25T01:21:15;18.90;99.90
5172;DHT22;2605;49.770;9.868;2022-08-25T01:23:42;18.90;99.90
5172;DHT22;2605;49.770;9.868;2022-08-25T01:28:34;18.80;99.90
5172;DHT22;2605;49.770;9.868;2022-08-25T01:31:00;18.80;99.90
5172;DHT22;2605;49.770;9.868;2022-08-25T01:33:26;18.70;99.90
5172;DHT22;2605;49.770;9.868;2022-08-25T01:35:51;18.70;99.90
5172;DHT22;2605;49.770;9.868;2022-08-25T01:38:18;18.60;99.90
5172;DHT22;2605;49.770;9.868;2022-08-25T01:40:45;18.60;99.90
5172;DHT22;2605;49.770;9.868;2022-08-25T01:43:21;18.50;99.90
5172;DHT22;2605;49.770;9.868;2022-08-25T01:45:49;18.50;99.90
5172;DHT22;2605;49.770;9.868;2022-08-25T01:48:17;18.40;99.90
5172;DHT22;2605;49.770;9.868;2022-08-25T01:50:42;18.40;99.90
5172;DHT22;2605;49.770;9.868;2022-08-25T01:53:22;18.40;99.90
5172;DHT22;2605;49.770;9.868;2022-08-25T01:55:47;18.30;99.90
5172;DHT22;2605;49.770;9.868;2022-08-25T01:58:21;18.30;99.90
5172;DHT22;2605;49.770;9.868;2022-08-25T02:00:48;18.30;99.90
5172;DHT22;2605;49.770;9.868;2022-08-25T02:03:14;18.20;99.90
5172;DHT22;2605;49.770;9.868;2022-08-25T02:05:40;18.20;99.90
5172;DHT22;2605;49.770;9.868;2022-08-25T02:08:05;18.20;99.90
5172;DHT22;2605;49.770;9.868;2022-08-25T02:10:32;18.20;99.90
5172;DHT22;2605;49.770;9.868;2022-08-25T02:12:58;18.20;99.90
5172;DHT22;2605;49.770;9.868;2022-08-25T02:15:24;18.20;99.90
5172;DHT22;2605;49.770;9.868;2022-08-25T02:17:49;18.20;99.90
5172;DHT22;2605;49.770;9.868;2022-08-25T02:20:15;18.20;99.90
5172;DHT22;2605;49.770;9.868;2022-08-25T02:22:40;18.10;99.90
5172;DHT22;2605;49.770;9.868;2022-08-25T02:25:06;18.10;99.90
5172;DHT22;2605;49.770;9.868;2022-08-25T02:27:32;18.10;99.90
5172;DHT22;2605;49.770;9.868;2022-08-25T02:29:58;18.00;99.90
5172;DHT22;2605;49.770;9.868;2022-08-25T02:32:23;18.00;99.90
5172;DHT22;2605;49.770;9.868;2022-08-25T02:34:49;17.90;99.90
5172;DHT22;2605;49.770;9.868;2022-08-25T02:37:15;17.90;99.90
5172;DHT22;2605;49.770;9.868;2022-08-25T02:39:40;17.90;99.90
5172;DHT22;2605;49.770;9.868;2022-08-25T02:42:06;17.90;99.90
5172;DHT22;2605;49.770;9.868;2022-08-25T02:44:31;17.80;99.90
5172;DHT22;2605;49.770;9.868;2022-08-25T02:46:57;17.80;99.90
5172;DHT22;2605;49.770;9.868;2022-08-25T02:49:23;17.80;99.90
5172;DHT22;2605;49.770;9.868;2022-08-25T02:51:49;17.80;99.90
5172;DHT22;2605;49.770;9.868;2022-08-25T02:54:15;17.80;99.90
5172;DHT22;2605;49.770;9.868;2022-08-25T02:56:40;17.80;99.90
5172;DHT22;2605;49.770;9.868;2022-08-25T02:59:07;17.70;99.90
5172;DHT22;2605;49.770;9.868;2022-08-25T03:01:32;17.80;99.90
5172;DHT22;2605;49.770;9.868;2022-08-25T03:04:01;17.70;99.90
5172;DHT22;2605;49.770;9.868;2022-08-25T03:06:27;17.80;99.90
5172;DHT22;2605;49.770;9.868;2022-08-25T03:08:53;17.70;99.90
5172;DHT22;2605;49.770;9.868;2022-08-25T03:11:19;17.70;99.90
5172;DHT22;2605;49.770;9.868;2022-08-25T03:13:45;17.70;99.90
5172;DHT22;2605;49.770;9.868;2022-08-25T03:16:11;17.60;99.90
5172;DHT22;2605;49.770;9.868;2022-08-25T03:18:37;17.60;99.90
5172;DHT22;2605;49.770;9.868;2022-08-25T03:21:03;17.60;99.90
5172;DHT22;2605;49.770;9.868;2022-08-25T03:23:28;17.60;99.90
5172;DHT22;2605;49.770;9.868;2022-08-25T03:25:54;17.50;99.90
5172;DHT22;2605;49.770;9.868;2022-08-25T03:28:38;17.50;99.90
5172;DHT22;2605;49.770;9.868;2022-08-25T03:31:06;17.50;99.90
5172;DHT22;2605;49.770;9.868;2022-08-25T03:33:32;17.50;99.90
5172;DHT22;2605;49.770;9.868;2022-08-25T03:35:57;17.60;99.90
5172;DHT22;2605;49.770;9.868;2022-08-25T03:38:24;17.60;99.90
5172;DHT22;2605;49.770;9.868;2022-08-25T03:40:50;17.60;99.90
5172;DHT22;2605;49.770;9.868;2022-08-25T03:43:17;17.60;99.90
5172;DHT22;2605;49.770;9.868;2022-08-25T03:45:43;17.60;99.90
5172;DHT22;2605;49.770;9.868;2022-08-25T03:48:09;17.50;99.90
5172;DHT22;2605;49.770;9.868;2022-08-25T03:50:35;17.50;99.90
5172;DHT22;2605;49.770;9.868;2022-08-25T03:53:00;17.50;99.90
5172;DHT22;2605;49.770;9.868;2022-08-25T03:55:26;17.50;99.90
5172;DHT22;2605;49.770;9.868;2022-08-25T03:57:53;17.50;99.90
5172;DHT22;2605;49.770;9.868;2022-08-25T04:00:20;17.50;99.90
5172;DHT22;2605;49.770;9.868;2022-08-25T04:02:46;17.50;99.90
5172;DHT22;2605;49.770;9.868;2022-08-25T04:05:11;17.50;99.90
5172;DHT22;2605;49.770;9.868;2022-08-25T04:07:38;17.50;99.90
5172;DHT22;2605;49.770;9.868;2022-08-25T04:10:09;17.50;99.90
5172;DHT22;2605;49.770;9.868;2022-08-25T04:12:35;17.50;99.90
5172;DHT22;2605;49.770;9.868;2022-08-25T04:15:02;17.60;99.90
5172;DHT22;2605;49.770;9.868;2022-08-25T04:17:28;17.50;99.90
5172;DHT22;2605;49.770;9.868;2022-08-25T04:19:54;17.50;99.90
5172;DHT22;2605;49.770;9.868;2022-08-25T04:22:20;17.50;99.90
5172;DHT22;2605;49.770;9.868;2022-08-25T04:24:45;17.50;99.90
5172;DHT22;2605;49.770;9.868;2022-08-25T04:27:11;17.50;99.90
5172;DHT22;2605;49.770;9.868;2022-08-25T04:29:36;17.60;99.90
5172;DHT22;2605;49.770;9.868;2022-08-25T04:32:02;17.60;99.90
5172;DHT22;2605;49.770;9.868;2022-08-25T04:34:28;17.60;99.90
5172;DHT22;2605;49.770;9.868;2022-08-25T04:36:54;17.60;99.90
5172;DHT22;2605;49.770;9.868;2022-08-25T04:39:20;17.70;99.90
5172;DHT22;2605;49.770;9.868;2022-08-25T04:41:49;17.90;99.90
5172;DHT22;2605;49.770;9.868;2022-08-25T04:44:15;18.00;99.90
5172;DHT22;2605;49.770;9.868;2022-08-25T04:46:41;18.10;99.90
5172;DHT22;2605;49.770;9.868;2022-08-25T04:49:06;18.20;99.90
5172;DHT22;2605;49.770;9.868;2022-08-25T04:51:35;18.40;99.90
5172;DHT22;2605;49.770;9.868;2022-08-25T04:54:04;18.50;99.90
5172;DHT22;2605;49.770;9.868;2022-08-25T04:56:31;18.70;99.90
5172;DHT22;2605;49.770;9.868;2022-08-25T04:59:01;18.70;99.90
5172;DHT22;2605;49.770;9.868;2022-08-25T05:01:27;18.70;99.90
5172;DHT22;2605;49.770;9.868;2022-08-25T05:03:55;18.80;99.90
5172;DHT22;2605;49.770;9.868;2022-08-25T05:06:21;18.80;99.90
5172;DHT22;2605;49.770;9.868;2022-08-25T05:08:47;18.80;99.90
5172;DHT22;2605;49.770;9.868;2022-08-25T05:11:13;18.90;99.90
5172;DHT22;2605;49.770;9.868;2022-08-25T05:13:40;18.90;99.90
5172;DHT22;2605;49.770;9.868;2022-08-25T05:16:05;18.80;99.90
5172;DHT22;2605;49.770;9.868;2022-08-25T05:18:32;18.80;99.90
5172;DHT22;2605;49.770;9.868;2022-08-25T05:21:06;18.70;99.90
5172;DHT22;2605;49.770;9.868;2022-08-25T05:23:32;18.70;99.90
5172;DHT22;2605;49.770;9.868;2022-08-25T05:26:06;18.70;99.90
5172;DHT22;2605;49.770;9.868;2022-08-25T05:28:31;18.70;99.90
5172;DHT22;2605;49.770;9.868;2022-08-25T05:30:59;18.80;99.90
5172;DHT22;2605;49.770;9.868;2022-08-25T05:33:25;19.10;99.90
5172;DHT22;2605;49.770;9.868;2022-08-25T05:35:50;19.40;99.90
5172;DHT22;2605;49.770;9.868;2022-08-25T05:38:16;19.60;99.90
5172;DHT22;2605;49.770;9.868;2022-08-25T05:40:42;19.70;99.90
5172;DHT22;2605;49.770;9.868;2022-08-25T05:43:08;19.70;99.90
5172;DHT22;2605;49.770;9.868;2022-08-25T05:45:34;19.80;99.90
5172;DHT22;2605;49.770;9.868;2022-08-25T05:48:00;20.10;99.90
5172;DHT22;2605;49.770;9.868;2022-08-25T05:50:26;20.20;99.90
5172;DHT22;2605;49.770;9.868;2022-08-25T05:52:52;20.40;99.90
5172;DHT22;2605;49.770;9.868;2022-08-25T05:55:17;20.60;99.90
5172;DHT22;2605;49.770;9.868;2022-08-25T05:57:43;20.80;99.90
5172;DHT22;2605;49.770;9.868;2022-08-25T06:00:09;20.90;99.90
5172;DHT22;2605;49.770;9.868;2022-08-25T06:02:35;21.10;99.90
5172;DHT22;2605;49.770;9.868;2022-08-25T06:05:21;21.30;99.90
5172;DHT22;2605;49.770;9.868;2022-08-25T06:07:49;21.40;99.90
5172;DHT22;2605;49.770;9.868;2022-08-25T06:10:16;21.60;99.90
5172;DHT22;2605;49.770;9.868;2022-08-25T06:12:43;21.70;99.90
5172;DHT22;2605;49.770;9.868;2022-08-25T06:15:11;21.90;99.90
5172;DHT22;2605;49.770;9.868;2022-08-25T06:17:37;21.90;99.90
5172;DHT22;2605;49.770;9.868;2022-08-25T06:20:08;21.80;99.90
5172;DHT22;2605;49.770;9.868;2022-08-25T06:22:34;21.60;99.90
5172;DHT22;2605;49.770;9.868;2022-08-25T06:25:02;21.50;99.90
5172;DHT22;2605;49.770;9.868;2022-08-25T06:27:28;21.50;99.90
5172;DHT22;2605;49.770;9.868;2022-08-25T06:29:53;21.60;99.90
5172;DHT22;2605;49.770;9.868;2022-08-25T06:32:19;21.80;99.90
5172;DHT22;2605;49.770;9.868;2022-08-25T06:34:45;21.90;99.90
5172;DHT22;2605;49.770;9.868;2022-08-25T06:37:10;22.10;99.90
5172;DHT22;2605;49.770;9.868;2022-08-25T06:39:36;22.20;99.90
5172;DHT22;2605;49.770;9.868;2022-08-25T06:42:01;22.20;99.90
5172;DHT22;2605;49.770;9.868;2022-08-25T06:44:27;22.20;99.90
5172;DHT22;2605;49.770;9.868;2022-08-25T06:46:53;22.30;99.90
5172;DHT22;2605;49.770;9.868;2022-08-25T06:49:18;22.20;99.90
5172;DHT22;2605;49.770;9.868;2022-08-25T06:51:44;22.20;99.90
5172;DHT22;2605;49.770;9.868;2022-08-25T06:54:10;22.00;99.90
5172;DHT22;2605;49.770;9.868;2022-08-25T06:56:36;22.00;99.90
5172;DHT22;2605;49.770;9.868;2022-08-25T06:59:04;21.90;99.90
5172;DHT22;2605;49.770;9.868;2022-08-25T07:01:30;21.70;99.90
5172;DHT22;2605;49.770;9.868;2022-08-25T07:03:57;21.80;99.90
5172;DHT22;2605;49.770;9.868;2022-08-25T07:06:25;21.80;99.90
5172;DHT22;2605;49.770;9.868;2022-08-25T07:08:51;21.90;99.90
5172;DHT22;2605;49.770;9.868;2022-08-25T07:11:17;22.00;99.90
5172;DHT22;2605;49.770;9.868;2022-08-25T07:13:45;22.20;99.90
5172;DHT22;2605;49.770;9.868;2022-08-25T07:16:10;22.60;99.90
5172;DHT22;2605;49.770;9.868;2022-08-25T07:18:36;22.90;99.90
5172;DHT22;2605;49.770;9.868;2022-08-25T07:21:02;23.10;99.90
5172;DHT22;2605;49.770;9.868;2022-08-25T07:23:28;23.40;99.90
5172;DHT22;2605;49.770;9.868;2022-08-25T07:25:54;23.70;99.90
5172;DHT22;2605;49.770;9.868;2022-08-25T07:28:21;23.80;99.90
5172;DHT22;2605;49.770;9.868;2022-08-25T07:30:48;23.80;99.90
5172;DHT22;2605;49.770;9.868;2022-08-25T07:33:14;23.90;99.90
5172;DHT22;2605;49.770;9.868;2022-08-25T07:35:39;24.00;99.90
5172;DHT22;2605;49.770;9.868;2022-08-25T07:38:06;24.00;99.90
5172;DHT22;2605;49.770;9.868;2022-08-25T07:40:34;23.90;99.90
5172;DHT22;2605;49.770;9.868;2022-08-25T07:43:04;23.80;99.90
5172;DHT22;2605;49.770;9.868;2022-08-25T07:45:33;23.80;99.90
5172;DHT22;2605;49.770;9.868;2022-08-25T07:48:07;23.70;99.90
5172;DHT22;2605;49.770;9.868;2022-08-25T07:50:35;23.80;99.90
5172;DHT22;2605;49.770;9.868;2022-08-25T07:53:04;23.80;99.90
5172;DHT22;2605;49.770;9.868;2022-08-25T07:55:29;23.90;99.90
5172;DHT22;2605;49.770;9.868;2022-08-25T07:57:55;24.00;99.90
5172;DHT22;2605;49.770;9.868;2022-08-25T08:00:22;24.10;99.90
5172;DHT22;2605;49.770;9.868;2022-08-25T08:02:51;24.20;99.90
5172;DHT22;2605;49.770;9.868;2022-08-25T08:05:17;24.20;99.90
5172;DHT22;2605;49.770;9.868;2022-08-25T08:07:42;24.30;99.90
5172;DHT22;2605;49.770;9.868;2022-08-25T08:10:11;24.30;99.90
5172;DHT22;2605;49.770;9.868;2022-08-25T08:12:37;24.40;99.90
5172;DHT22;2605;49.770;9.868;2022-08-25T08:15:03;24.40;99.90
5172;DHT22;2605;49.770;9.868;2022-08-25T08:17:28;24.60;99.90
5172;DHT22;2605;49.770;9.868;2022-08-25T08:19:56;24.70;99.90
5172;DHT22;2605;49.770;9.868;2022-08-25T08:22:22;24.80;99.90
5172;DHT22;2605;49.770;9.868;2022-08-25T08:24:47;24.80;99.90
5172;DHT22;2605;49.770;9.868;2022-08-25T08:27:13;24.90;99.90
5172;DHT22;2605;49.770;9.868;2022-08-25T08:29:40;24.90;99.90
5172;DHT22;2605;49.770;9.868;2022-08-25T08:32:08;25.00;99.90
5172;DHT22;2605;49.770;9.868;2022-08-25T08:34:35;24.80;99.90
5172;DHT22;2605;49.770;9.868;2022-08-25T08:37:01;24.90;99.90
5172;DHT22;2605;49.770;9.868;2022-08-25T08:39:28;24.70;99.90
5172;DHT22;2605;49.770;9.868;2022-08-25T08:52:42;25.70;99.90
5172;DHT22;2605;49.770;9.868;2022-08-25T08:55:20;25.90;99.90
5172;DHT22;2605;49.770;9.868;2022-08-25T08:57:50;26.00;99.90
5172;DHT22;2605;49.770;9.868;2022-08-25T09:00:20;26.10;99.90
5172;DHT22;2605;49.770;9.868;2022-08-25T09:02:55;26.20;99.90
5172;DHT22;2605;49.770;9.868;2022-08-25T09:05:24;26.30;99.90
5172;DHT22;2605;49.770;9.868;2022-08-25T09:07:57;26.40;99.90
5172;DHT22;2605;49.770;9.868;2022-08-25T09:10:31;26.50;99.90
5172;DHT22;2605;49.770;9.868;2022-08-25T09:13:15;26.50;99.90
5172;DHT22;2605;49.770;9.868;2022-08-25T09:16:10;26.70;99.90
5172;DHT22;2605;49.770;9.868;2022-08-25T09:21:51;27.00;99.90
5172;DHT22;2605;49.770;9.868;2022-08-25T09:29:57;27.30;99.90
5172;DHT22;2605;49.770;9.868;2022-08-25T09:32:27;27.50;99.90
5172;DHT22;2605;49.770;9.868;2022-08-25T09:34:54;27.70;99.90
5172;DHT22;2605;49.770;9.868;2022-08-25T09:37:22;27.80;99.90
5172;DHT22;2605;49.770;9.868;2022-08-25T09:39:47;27.90;99.90
5172;DHT22;2605;49.770;9.868;2022-08-25T09:42:13;27.90;99.90
5172;DHT22;2605;49.770;9.868;2022-08-25T09:44:42;27.80;99.90
5172;DHT22;2605;49.770;9.868;2022-08-25T09:47:21;27.70;99.90
5172;DHT22;2605;49.770;9.868;2022-08-25T09:49:56;27.80;99.90
5172;DHT22;2605;49.770;9.868;2022-08-25T09:55:21;27.80;99.90
5172;DHT22;2605;49.770;9.868;2022-08-25T10:02:38;27.90;99.90
5172;DHT22;2605;49.770;9.868;2022-08-25T10:07:53;27.80;99.90
5172;DHT22;2605;49.770;9.868;2022-08-25T10:10:31;27.80;99.90
5172;DHT22;2605;49.770;9.868;2022-08-25T10:12:57;27.70;99.90
5172;DHT22;2605;49.770;9.868;2022-08-25T10:15:33;27.90;99.90
5172;DHT22;2605;49.770;9.868;2022-08-25T10:18:23;28.10;99.90
5172;DHT22;2605;49.770;9.868;2022-08-25T10:21:09;28.10;99.90
5172;DHT22;2605;49.770;9.868;2022-08-25T10:23:39;28.10;99.90
5172;DHT22;2605;49.770;9.868;2022-08-25T10:26:17;28.10;99.90
5172;DHT22;2605;49.770;9.868;2022-08-25T10:34:43;27.80;99.90
5172;DHT22;2605;49.770;9.868;2022-08-25T10:37:33;27.90;99.90
5172;DHT22;2605;49.770;9.868;2022-08-25T10:40:35;27.90;99.90
5172;DHT22;2605;49.770;9.868;2022-08-25T10:46:00;28.10;99.90
5172;DHT22;2605;49.770;9.868;2022-08-25T10:51:35;28.20;99.90
5172;DHT22;2605;49.770;9.868;2022-08-25T10:54:25;28.20;99.90
5172;DHT22;2605;49.770;9.868;2022-08-25T11:07:34;28.60;99.90
5172;DHT22;2605;49.770;9.868;2022-08-25T11:10:17;28.60;99.90
5172;DHT22;2605;49.770;9.868;2022-08-25T11:12:53;28.80;99.90
5172;DHT22;2605;49.770;9.868;2022-08-25T11:15:28;28.80;99.90
5172;DHT22;2605;49.770;9.868;2022-08-25T11:18:07;28.90;99.90
5172;DHT22;2605;49.770;9.868;2022-08-25T11:20:45;29.10;99.90
5172;DHT22;2605;49.770;9.868;2022-08-25T11:23:28;29.30;99.90
5172;DHT22;2605;49.770;9.868;2022-08-25T11:26:02;29.50;99.90
5172;DHT22;2605;49.770;9.868;2022-08-25T11:28:34;29.50;99.90
5172;DHT22;2605;49.770;9.868;2022-08-25T11:31:01;29.80;99.90
5172;DHT22;2605;49.770;9.868;2022-08-25T11:33:29;30.10;99.90
5172;DHT22;2605;49.770;9.868;2022-08-25T11:36:11;30.40;99.90
5172;DHT22;2605;49.770;9.868;2022-08-25T11:50:22;31.30;99.90
5172;DHT22;2605;49.770;9.868;2022-08-25T11:58:24;31.90;99.90
5172;DHT22;2605;49.770;9.868;2022-08-25T12:00:51;32.20;99.90
5172;DHT22;2605;49.770;9.868;2022-08-25T12:06:23;32.40;99.90
5172;DHT22;2605;49.770;9.868;2022-08-25T12:11:43;32.30;99.90
5172;DHT22;2605;49.770;9.868;2022-08-25T12:35:57;32.70;99.90
5172;DHT22;2605;49.770;9.868;2022-08-25T12:41:13;33.10;99.90
5172;DHT22;2605;49.770;9.868;2022-08-25T12:43:45;33.30;99.90
5172;DHT22;2605;49.770;9.868;2022-08-25T12:49:04;33.00;99.90
5172;DHT22;2605;49.770;9.868;2022-08-25T12:52:04;33.00;99.90
5172;DHT22;2605;49.770;9.868;2022-08-25T12:54:53;32.90;99.90
5172;DHT22;2605;49.770;9.868;2022-08-25T13:00:19;32.90;99.90
5172;DHT22;2605;49.770;9.868;2022-08-25T13:03:05;32.80;99.90
5172;DHT22;2605;49.770;9.868;2022-08-25T13:11:19;32.60;99.90
5172;DHT22;2605;49.770;9.868;2022-08-25T13:16:55;32.60;99.90
5172;DHT22;2605;49.770;9.868;2022-08-25T13:19:22;32.40;99.90
5172;DHT22;2605;49.770;9.868;2022-08-25T13:21:48;32.40;99.90
5172;DHT22;2605;49.770;9.868;2022-08-25T13:24:21;32.50;99.90
5172;DHT22;2605;49.770;9.868;2022-08-25T13:26:54;32.80;99.90
5172;DHT22;2605;49.770;9.868;2022-08-25T13:29:23;33.10;99.90
5172;DHT22;2605;49.770;9.868;2022-08-25T13:32:01;33.40;99.90
5172;DHT22;2605;49.770;9.868;2022-08-25T13:34:33;33.50;99.90
5172;DHT22;2605;49.770;9.868;2022-08-25T13:37:08;33.60;99.90
5172;DHT22;2605;49.770;9.868;2022-08-25T13:42:32;33.70;99.90
5172;DHT22;2605;49.770;9.868;2022-08-25T13:44:57;33.30;99.90
5172;DHT22;2605;49.770;9.868;2022-08-25T13:50:26;33.00;99.90
5172;DHT22;2605;49.770;9.868;2022-08-25T13:53:00;33.30;99.90
5172;DHT22;2605;49.770;9.868;2022-08-25T13:58:17;33.60;99.90
5172;DHT22;2605;49.770;9.868;2022-08-25T14:00:46;33.70;99.90
5172;DHT22;2605;49.770;9.868;2022-08-25T14:03:30;34.00;99.90
5172;DHT22;2605;49.770;9.868;2022-08-25T14:09:34;36.40;96.00
5172;DHT22;2605;49.770;9.868;2022-08-25T14:11:40;38.10;92.10
5172;DHT22;2605;49.770;9.868;2022-08-25T14:14:11;39.40;86.40
5172;DHT22;2605;49.770;9.868;2022-08-25T14:16:48;39.30;82.50
5172;DHT22;2605;49.770;9.868;2022-08-25T14:19:17;38.50;80.60
5172;DHT22;2605;49.770;9.868;2022-08-25T14:21:43;37.80;83.50
5172;DHT22;2605;49.770;9.868;2022-08-25T14:24:14;39.80;78.60
5172;DHT22;2605;49.770;9.868;2022-08-25T14:26:40;41.60;71.30
5172;DHT22;2605;49.770;9.868;2022-08-25T14:29:06;41.50;65.00
5172;DHT22;2605;49.770;9.868;2022-08-25T14:31:35;42.40;63.30
5172;DHT22;2605;49.770;9.868;2022-08-25T14:34:06;41.00;61.30
5172;DHT22;2605;49.770;9.868;2022-08-25T14:36:34;40.50;64.80
5172;DHT22;2605;49.770;9.868;2022-08-25T14:39:02;41.90;57.50
5172;DHT22;2605;49.770;9.868;2022-08-25T14:41:35;41.30;55.60
5172;DHT22;2605;49.770;9.868;2022-08-25T14:44:02;40.10;58.20
5172;DHT22;2605;49.770;9.868;2022-08-25T14:46:34;38.90;62.90
5172;DHT22;2605;49.770;9.868;2022-08-25T14:49:04;37.70;69.00
5172;DHT22;2605;49.770;9.868;2022-08-25T14:51:32;36.20;75.70
5172;DHT22;2605;49.770;9.868;2022-08-25T14:54:06;35.60;82.50
5172;DHT22;2605;49.770;9.868;2022-08-25T14:56:34;37.20;76.80
5172;DHT22;2605;49.770;9.868;2022-08-25T14:59:00;38.80;71.60
5172;DHT22;2605;49.770;9.868;2022-08-25T15:01:26;40.10;66.00
5172;DHT22;2605;49.770;9.868;2022-08-25T15:04:02;39.90;62.90
5172;DHT22;2605;49.770;9.868;2022-08-25T15:06:29;39.30;66.30
5172;DHT22;2605;49.770;9.868;2022-08-25T15:08:55;39.20;66.30
5172;DHT22;2605;49.770;9.868;2022-08-25T15:11:36;40.90;61.70
5172;DHT22;2605;49.770;9.868;2022-08-25T15:14:02;42.50;56.40
5172;DHT22;2605;49.770;9.868;2022-08-25T15:16:37;43.90;52.30
5172;DHT22;2605;49.770;9.868;2022-08-25T15:19:07;44.50;48.60
5172;DHT22;2605;49.770;9.868;2022-08-25T15:21:35;44.30;45.60
5172;DHT22;2605;49.770;9.868;2022-08-25T15:24:01;42.30;48.80
5172;DHT22;2605;49.770;9.868;2022-08-25T15:26:26;42.20;50.10
5172;DHT22;2605;49.770;9.868;2022-08-25T15:28:52;40.70;52.50
5172;DHT22;2605;49.770;9.868;2022-08-25T15:31:19;40.70;54.60
5172;DHT22;2605;49.770;9.868;2022-08-25T15:33:45;42.30;51.90
5172;DHT22;2605;49.770;9.868;2022-08-25T15:36:12;42.90;49.40
5172;DHT22;2605;49.770;9.868;2022-08-25T15:38:40;43.90;48.40
5172;DHT22;2605;49.770;9.868;2022-08-25T15:41:07;44.10;48.50
5172;DHT22;2605;49.770;9.868;2022-08-25T15:43:32;41.80;53.40
5172;DHT22;2605;49.770;9.868;2022-08-25T15:45:58;39.70;58.70
5172;DHT22;2605;49.770;9.868;2022-08-25T15:48:24;38.00;66.40
5172;DHT22;2605;49.770;9.868;2022-08-25T15:50:53;37.00;73.40
5172;DHT22;2605;49.770;9.868;2022-08-25T15:53:27;36.30;78.00
5172;DHT22;2605;49.770;9.868;2022-08-25T15:55:53;35.60;83.90
5172;DHT22;2605;49.770;9.868;2022-08-25T15:58:19;34.80;91.00
5172;DHT22;2605;49.770;9.868;2022-08-25T16:00:45;34.10;95.00
5172;DHT22;2605;49.770;9.868;2022-08-25T16:03:11;33.90;97.50
5172;DHT22;2605;49.770;9.868;2022-08-25T16:05:39;33.40;99.40
5172;DHT22;2605;49.770;9.868;2022-08-25T16:08:05;34.60;98.80
5172;DHT22;2605;49.770;9.868;2022-08-25T16:10:39;36.80;93.00
5172;DHT22;2605;49.770;9.868;2022-08-25T16:13:06;38.70;86.50
5172;DHT22;2605;49.770;9.868;2022-08-25T16:15:32;40.20;78.50
5172;DHT22;2605;49.770;9.868;2022-08-25T16:17:59;41.40;71.00
5172;DHT22;2605;49.770;9.868;2022-08-25T16:20:26;41.70;66.80
5172;DHT22;2605;49.770;9.868;2022-08-25T16:22:52;40.30;68.90
5172;DHT22;2605;49.770;9.868;2022-08-25T16:25:18;39.20;73.20
5172;DHT22;2605;49.770;9.868;2022-08-25T16:27:43;38.00;78.00
5172;DHT22;2605;49.770;9.868;2022-08-25T16:30:10;37.40;81.10
5172;DHT22;2605;49.770;9.868;2022-08-25T16:32:37;37.80;82.70
5172;DHT22;2605;49.770;9.868;2022-08-25T16:35:03;39.10;77.50
5172;DHT22;2605;49.770;9.868;2022-08-25T16:37:32;40.10;71.90
5172;DHT22;2605;49.770;9.868;2022-08-25T16:39:57;41.30;67.30
5172;DHT22;2605;49.770;9.868;2022-08-25T16:42:23;42.20;62.90
5172;DHT22;2605;49.770;9.868;2022-08-25T16:44:48;42.90;59.50
5172;DHT22;2605;49.770;9.868;2022-08-25T16:47:14;43.40;57.10
5172;DHT22;2605;49.770;9.868;2022-08-25T16:49:40;43.70;55.40
5172;DHT22;2605;49.770;9.868;2022-08-25T16:52:06;43.90;54.30
5172;DHT22;2605;49.770;9.868;2022-08-25T16:54:51;44.20;53.10
5172;DHT22;2605;49.770;9.868;2022-08-25T16:57:38;44.40;52.00
5172;DHT22;2605;49.770;9.868;2022-08-25T17:00:06;44.50;50.90
5172;DHT22;2605;49.770;9.868;2022-08-25T17:02:34;44.60;50.20
5172;DHT22;2605;49.770;9.868;2022-08-25T17:04:59;44.40;50.00
5172;DHT22;2605;49.770;9.868;2022-08-25T17:07:25;44.40;49.40
5172;DHT22;2605;49.770;9.868;2022-08-25T17:09:50;44.40;49.10
5172;DHT22;2605;49.770;9.868;2022-08-25T17:12:17;43.80;48.80
5172;DHT22;2605;49.770;9.868;2022-08-25T17:14:43;43.50;49.80
5172;DHT22;2605;49.770;9.868;2022-08-25T17:17:08;43.20;50.00
5172;DHT22;2605;49.770;9.868;2022-08-25T17:19:34;42.90;50.60
5172;DHT22;2605;49.770;9.868;2022-08-25T17:21:59;42.50;51.40
5172;DHT22;2605;49.770;9.868;2022-08-25T17:24:24;42.00;52.90
5172;DHT22;2605;49.770;9.868;2022-08-25T17:26:50;41.40;54.70
5172;DHT22;2605;49.770;9.868;2022-08-25T17:29:16;41.20;55.70
5172;DHT22;2605;49.770;9.868;2022-08-25T17:31:42;40.90;57.10
5172;DHT22;2605;49.770;9.868;2022-08-25T17:34:12;40.60;58.60
5172;DHT22;2605;49.770;9.868;2022-08-25T17:36:39;40.40;58.60
5172;DHT22;2605;49.770;9.868;2022-08-25T17:39:06;40.00;59.50
5172;DHT22;2605;49.770;9.868;2022-08-25T17:41:32;39.70;61.70
5172;DHT22;2605;49.770;9.868;2022-08-25T17:43:58;39.50;62.90
5172;DHT22;2605;49.770;9.868;2022-08-25T17:46:25;39.20;63.90
5172;DHT22;2605;49.770;9.868;2022-08-25T17:48:51;38.90;65.70
5172;DHT22;2605;49.770;9.868;2022-08-25T17:51:17;38.50;67.30
5172;DHT22;2605;49.770;9.868;2022-08-25T17:53:43;37.90;70.00
5172;DHT22;2605;49.770;9.868;2022-08-25T17:56:15;37.20;75.30
5172;DHT22;2605;49.770;9.868;2022-08-25T17:58:41;36.40;80.10
5172;DHT22;2605;49.770;9.868;2022-08-25T18:01:17;35.90;84.40
5172;DHT22;2605;49.770;9.868;2022-08-25T18:03:43;35.40;88.00
5172;DHT22;2605;49.770;9.868;2022-08-25T18:06:11;34.90;90.30
5172;DHT22;2605;49.770;9.868;2022-08-25T18:08:37;34.40;91.60
5172;DHT22;2605;49.770;9.868;2022-08-25T18:11:03;34.00;93.20
5172;DHT22;2605;49.770;9.868;2022-08-25T18:13:29;33.50;94.90
5172;DHT22;2605;49.770;9.868;2022-08-25T18:15:56;33.00;96.80
5172;DHT22;2605;49.770;9.868;2022-08-25T18:18:22;32.50;98.90
5172;DHT22;2605;49.770;9.868;2022-08-25T18:20:47;32.00;99.90